Lac La Biche, Alberta

Conditions des dernières 24 heures

Ce tableau est un sommaire des conditions météo couvrant les dernières 24 heures. Ce sommaire inclut les paramètres suivants: température, humidité, point de rosée, direction et vitesse du vent, pression barométrique, facteur de refroidissement éolien ou indice humidex.
Date / Heure
(HAR)
Conditions Temp (°C) Humidite (%) Point de rose (°C) Vent (km/h) Pression (kPa) Visibilité (km)
22 août 2014
19:00 N.D. 14 49 3 NNO 7 103,0 N.D.
18:00 N.D. 14 42 2 N 5 103,0 N.D.
17:00 N.D. 15 40 1 N 7 102,9 N.D.
16:00 N.D. 16   31 -1 ONO 4 102,9 N.D.
15:00 N.D. 15 35 0 NE 11 102,9 N.D.
14:00 N.D. 14 34 -1 ENE 8 103,0 N.D.
13:00 N.D. 14 42 1 NNE 4 102,9 N.D.
12:00 N.D. 14 46 2 ENE 8 103,0 N.D.
11:00 N.D. 12 59 4 NE 8 103,0 N.D.
10:00 N.D. 11 64 5 ENE 9 102,9 N.D.
9:00 N.D. 10 74 6 ENE 9 102,9 N.D.
8:00 N.D. 9 88 7 calme 102,8 N.D.
7:00 N.D. 8 92 7 calme 102,8 N.D.
6:00 N.D. 8 90 6 ONO 3 102,8 N.D.
5:00 N.D. 8 89 6 calme 102,7 N.D.
4:00 N.D. 7 89 6 ONO 3 102,7 N.D.
3:00 N.D. 6 93 5 O 2 102,7 N.D.
2:00 N.D. 3   94 3 NO 7 102,7 N.D.
1:00 N.D. 5 96 4 O 3 102,7 N.D.
0:00 N.D. 5 85 3 O 2 102,7 N.D.
21 août 2014
23:00 N.D. 7 79 3 ONO 5 102,6 N.D.
22:00 N.D. 8 70 3 N 7 102,6 N.D.
21:00 N.D. 11 47 0 N 7 102,5 N.D.
20:00 N.D. 12 51 2 NNO 7 102,5 N.D.
19:00 N.D. 13 42 1 NNO 6 102,5 N.D.
N.D.
non disponible
 ↑ 
température la plus haute
 ↓ 
température la plus basse

Si vous désirez plus de données historiques sur les conditions météo, s.v.p. visitez Données climatologiques en ligne.